sensor_id;sensor_type;location;lat;lon;timestamp;P1;durP1;ratioP1;P2;durP2;ratioP2
6979;SDS011;3530;52.832;10.680;2023-04-29T00:00:03;25.67;;;19.30;;
6979;SDS011;3530;52.832;10.680;2023-04-29T00:02:53;32.95;;;24.35;;
6979;SDS011;3530;52.832;10.680;2023-04-29T00:05:39;25.48;;;18.42;;
6979;SDS011;3530;52.832;10.680;2023-04-29T00:08:24;22.38;;;16.45;;
6979;SDS011;3530;52.832;10.680;2023-04-29T00:11:10;19.75;;;15.45;;
6979;SDS011;3530;52.832;10.680;2023-04-29T00:13:56;18.33;;;14.65;;
6979;SDS011;3530;52.832;10.680;2023-04-29T00:16:42;18.10;;;14.05;;
6979;SDS011;3530;52.832;10.680;2023-04-29T00:19:27;19.25;;;13.70;;
6979;SDS011;3530;52.832;10.680;2023-04-29T00:22:13;17.58;;;13.68;;
6979;SDS011;3530;52.832;10.680;2023-04-29T00:24:59;17.55;;;14.65;;
6979;SDS011;3530;52.832;10.680;2023-04-29T00:27:44;14.85;;;11.95;;
6979;SDS011;3530;52.832;10.680;2023-04-29T00:30:30;14.38;;;12.48;;
6979;SDS011;3530;52.832;10.680;2023-04-29T00:33:19;14.35;;;10.85;;
6979;SDS011;3530;52.832;10.680;2023-04-29T00:36:05;13.32;;;10.50;;
6979;SDS011;3530;52.832;10.680;2023-04-29T00:38:51;14.05;;;11.10;;
6979;SDS011;3530;52.832;10.680;2023-04-29T00:41:37;18.75;;;11.52;;
6979;SDS011;3530;52.832;10.680;2023-04-29T00:44:23;16.25;;;11.80;;
6979;SDS011;3530;52.832;10.680;2023-04-29T00:47:08;19.55;;;14.48;;
6979;SDS011;3530;52.832;10.680;2023-04-29T00:49:55;21.17;;;15.13;;
6979;SDS011;3530;52.832;10.680;2023-04-29T00:52:41;17.80;;;11.90;;
6979;SDS011;3530;52.832;10.680;2023-04-29T00:55:27;19.40;;;13.75;;
6979;SDS011;3530;52.832;10.680;2023-04-29T00:58:13;17.48;;;13.10;;
6979;SDS011;3530;52.832;10.680;2023-04-29T01:00:59;19.88;;;13.88;;
6979;SDS011;3530;52.832;10.680;2023-04-29T01:03:45;21.27;;;15.30;;
6979;SDS011;3530;52.832;10.680;2023-04-29T01:06:48;18.15;;;13.35;;
6979;SDS011;3530;52.832;10.680;2023-04-29T01:09:52;18.60;;;13.60;;
6979;SDS011;3530;52.832;10.680;2023-04-29T01:12:57;17.88;;;13.73;;
6979;SDS011;3530;52.832;10.680;2023-04-29T01:15:56;24.02;;;16.52;;
6979;SDS011;3530;52.832;10.680;2023-04-29T01:18:49;22.15;;;15.98;;
6979;SDS011;3530;52.832;10.680;2023-04-29T01:21:48;21.30;;;15.50;;
6979;SDS011;3530;52.832;10.680;2023-04-29T01:24:34;22.67;;;15.77;;
6979;SDS011;3530;52.832;10.680;2023-04-29T01:27:30;17.88;;;13.75;;
6979;SDS011;3530;52.832;10.680;2023-04-29T01:33:28;17.17;;;13.00;;
6979;SDS011;3530;52.832;10.680;2023-04-29T01:36:29;14.75;;;11.50;;
6979;SDS011;3530;52.832;10.680;2023-04-29T01:42:47;14.55;;;10.63;;
6979;SDS011;3530;52.832;10.680;2023-04-29T01:45:35;13.80;;;10.23;;
6979;SDS011;3530;52.832;10.680;2023-04-29T01:48:25;10.80;;;9.25;;
6979;SDS011;3530;52.832;10.680;2023-04-29T01:51:11;10.00;;;8.88;;
6979;SDS011;3530;52.832;10.680;2023-04-29T01:53:57;8.65;;;7.30;;
6979;SDS011;3530;52.832;10.680;2023-04-29T01:56:43;8.85;;;7.95;;
6979;SDS011;3530;52.832;10.680;2023-04-29T01:59:29;6.78;;;6.07;;
6979;SDS011;3530;52.832;10.680;2023-04-29T02:02:15;7.65;;;6.90;;
6979;SDS011;3530;52.832;10.680;2023-04-29T02:05:05;7.03;;;6.03;;
6979;SDS011;3530;52.832;10.680;2023-04-29T02:07:51;6.85;;;6.13;;
6979;SDS011;3530;52.832;10.680;2023-04-29T02:10:37;7.60;;;6.75;;
6979;SDS011;3530;52.832;10.680;2023-04-29T02:13:22;6.55;;;5.72;;
6979;SDS011;3530;52.832;10.680;2023-04-29T02:16:09;6.03;;;5.43;;
6979;SDS011;3530;52.832;10.680;2023-04-29T02:18:55;7.65;;;6.90;;
6979;SDS011;3530;52.832;10.680;2023-04-29T02:21:41;7.15;;;6.55;;
6979;SDS011;3530;52.832;10.680;2023-04-29T02:24:27;5.78;;;5.28;;
6979;SDS011;3530;52.832;10.680;2023-04-29T02:27:12;4.57;;;3.40;;
6979;SDS011;3530;52.832;10.680;2023-04-29T02:29:58;6.20;;;5.60;;
6979;SDS011;3530;52.832;10.680;2023-04-29T02:32:44;9.73;;;8.10;;
6979;SDS011;3530;52.832;10.680;2023-04-29T02:35:29;9.02;;;7.10;;
6979;SDS011;3530;52.832;10.680;2023-04-29T02:38:15;6.18;;;5.60;;
6979;SDS011;3530;52.832;10.680;2023-04-29T02:41:01;6.57;;;5.55;;
6979;SDS011;3530;52.832;10.680;2023-04-29T02:43:46;9.73;;;7.40;;
6979;SDS011;3530;52.832;10.680;2023-04-29T02:46:35;8.00;;;6.43;;
6979;SDS011;3530;52.832;10.680;2023-04-29T02:49:21;6.72;;;6.00;;
6979;SDS011;3530;52.832;10.680;2023-04-29T02:52:07;6.18;;;5.57;;
6979;SDS011;3530;52.832;10.680;2023-04-29T02:54:53;7.78;;;6.63;;
6979;SDS011;3530;52.832;10.680;2023-04-29T02:57:39;7.75;;;7.03;;
6979;SDS011;3530;52.832;10.680;2023-04-29T03:00:25;10.23;;;8.20;;
6979;SDS011;3530;52.832;10.680;2023-04-29T03:03:11;10.65;;;8.07;;
6979;SDS011;3530;52.832;10.680;2023-04-29T03:05:56;11.93;;;8.27;;
6979;SDS011;3530;52.832;10.680;2023-04-29T03:08:42;9.65;;;8.13;;
6979;SDS011;3530;52.832;10.680;2023-04-29T03:11:28;9.23;;;7.88;;
6979;SDS011;3530;52.832;10.680;2023-04-29T03:14:13;8.57;;;6.10;;
6979;SDS011;3530;52.832;10.680;2023-04-29T03:16:59;8.23;;;7.28;;
6979;SDS011;3530;52.832;10.680;2023-04-29T03:19:45;8.90;;;6.30;;
6979;SDS011;3530;52.832;10.680;2023-04-29T03:22:30;5.47;;;4.97;;
6979;SDS011;3530;52.832;10.680;2023-04-29T03:25:16;7.32;;;6.47;;
6979;SDS011;3530;52.832;10.680;2023-04-29T03:28:02;6.47;;;5.90;;
6979;SDS011;3530;52.832;10.680;2023-04-29T03:30:48;6.85;;;5.70;;
6979;SDS011;3530;52.832;10.680;2023-04-29T03:33:34;6.82;;;5.95;;
6979;SDS011;3530;52.832;10.680;2023-04-29T03:36:19;5.40;;;4.90;;
6979;SDS011;3530;52.832;10.680;2023-04-29T03:39:05;8.15;;;6.43;;
6979;SDS011;3530;52.832;10.680;2023-04-29T03:41:51;7.80;;;6.47;;
6979;SDS011;3530;52.832;10.680;2023-04-29T03:44:37;6.85;;;6.20;;
6979;SDS011;3530;52.832;10.680;2023-04-29T03:47:22;6.45;;;5.07;;
6979;SDS011;3530;52.832;10.680;2023-04-29T03:50:08;7.13;;;6.40;;
6979;SDS011;3530;52.832;10.680;2023-04-29T03:52:54;7.38;;;6.40;;
6979;SDS011;3530;52.832;10.680;2023-04-29T03:55:40;8.50;;;6.95;;
6979;SDS011;3530;52.832;10.680;2023-04-29T03:58:25;6.30;;;5.68;;
6979;SDS011;3530;52.832;10.680;2023-04-29T04:01:11;5.47;;;4.97;;
6979;SDS011;3530;52.832;10.680;2023-04-29T04:03:57;7.53;;;6.32;;
6979;SDS011;3530;52.832;10.680;2023-04-29T04:06:42;8.10;;;6.40;;
6979;SDS011;3530;52.832;10.680;2023-04-29T04:09:34;8.40;;;6.72;;
6979;SDS011;3530;52.832;10.680;2023-04-29T04:12:20;7.85;;;6.88;;
6979;SDS011;3530;52.832;10.680;2023-04-29T04:15:06;9.27;;;6.90;;
6979;SDS011;3530;52.832;10.680;2023-04-29T04:17:52;6.25;;;5.65;;
6979;SDS011;3530;52.832;10.680;2023-04-29T04:20:37;7.28;;;6.57;;
6979;SDS011;3530;52.832;10.680;2023-04-29T04:23:23;8.50;;;6.57;;
6979;SDS011;3530;52.832;10.680;2023-04-29T04:26:09;6.43;;;5.80;;
6979;SDS011;3530;52.832;10.680;2023-04-29T04:28:54;7.80;;;6.30;;
6979;SDS011;3530;52.832;10.680;2023-04-29T04:31:40;5.97;;;5.22;;
6979;SDS011;3530;52.832;10.680;2023-04-29T04:34:26;5.32;;;4.63;;
6979;SDS011;3530;52.832;10.680;2023-04-29T04:37:11;6.25;;;5.72;;
6979;SDS011;3530;52.832;10.680;2023-04-29T04:39:57;5.95;;;5.38;;
6979;SDS011;3530;52.832;10.680;2023-04-29T04:42:42;7.13;;;5.68;;
6979;SDS011;3530;52.832;10.680;2023-04-29T04:45:28;7.13;;;5.95;;
6979;SDS011;3530;52.832;10.680;2023-04-29T04:48:15;6.32;;;5.72;;
6979;SDS011;3530;52.832;10.680;2023-04-29T04:51:10;4.72;;;4.32;;
6979;SDS011;3530;52.832;10.680;2023-04-29T04:53:56;7.55;;;6.40;;
6979;SDS011;3530;52.832;10.680;2023-04-29T04:56:42;6.93;;;6.28;;
6979;SDS011;3530;52.832;10.680;2023-04-29T04:59:28;6.10;;;5.38;;
6979;SDS011;3530;52.832;10.680;2023-04-29T05:02:13;8.88;;;6.15;;
6979;SDS011;3530;52.832;10.680;2023-04-29T05:04:59;9.07;;;7.05;;
6979;SDS011;3530;52.832;10.680;2023-04-29T05:07:45;9.85;;;7.30;;
6979;SDS011;3530;52.832;10.680;2023-04-29T05:10:30;10.20;;;7.22;;
6979;SDS011;3530;52.832;10.680;2023-04-29T05:13:17;10.48;;;8.23;;
6979;SDS011;3530;52.832;10.680;2023-04-29T05:16:03;9.73;;;8.00;;
6979;SDS011;3530;52.832;10.680;2023-04-29T05:18:50;12.77;;;8.85;;
6979;SDS011;3530;52.832;10.680;2023-04-29T05:21:35;11.30;;;8.98;;
6979;SDS011;3530;52.832;10.680;2023-04-29T05:24:21;10.95;;;8.23;;
6979;SDS011;3530;52.832;10.680;2023-04-29T05:27:06;13.77;;;9.75;;
6979;SDS011;3530;52.832;10.680;2023-04-29T05:29:52;14.30;;;9.15;;
6979;SDS011;3530;52.832;10.680;2023-04-29T05:32:38;13.90;;;9.55;;
6979;SDS011;3530;52.832;10.680;2023-04-29T05:35:23;14.88;;;10.88;;
6979;SDS011;3530;52.832;10.680;2023-04-29T05:38:09;12.95;;;9.48;;
6979;SDS011;3530;52.832;10.680;2023-04-29T05:40:55;16.20;;;11.27;;
6979;SDS011;3530;52.832;10.680;2023-04-29T05:43:41;18.63;;;12.73;;
6979;SDS011;3530;52.832;10.680;2023-04-29T05:46:26;17.90;;;12.60;;
6979;SDS011;3530;52.832;10.680;2023-04-29T05:49:12;15.00;;;10.85;;
6979;SDS011;3530;52.832;10.680;2023-04-29T05:51:58;19.10;;;10.77;;
6979;SDS011;3530;52.832;10.680;2023-04-29T05:54:48;12.77;;;9.98;;
6979;SDS011;3530;52.832;10.680;2023-04-29T05:57:34;17.88;;;11.88;;
6979;SDS011;3530;52.832;10.680;2023-04-29T06:00:19;13.52;;;9.23;;
6979;SDS011;3530;52.832;10.680;2023-04-29T06:03:05;17.48;;;10.98;;
6979;SDS011;3530;52.832;10.680;2023-04-29T06:05:51;15.68;;;10.95;;
6979;SDS011;3530;52.832;10.680;2023-04-29T06:08:36;14.85;;;10.38;;
6979;SDS011;3530;52.832;10.680;2023-04-29T06:11:22;15.30;;;11.63;;
6979;SDS011;3530;52.832;10.680;2023-04-29T06:14:08;14.02;;;10.95;;
6979;SDS011;3530;52.832;10.680;2023-04-29T06:16:53;12.75;;;10.25;;
6979;SDS011;3530;52.832;10.680;2023-04-29T06:19:39;15.70;;;12.45;;
6979;SDS011;3530;52.832;10.680;2023-04-29T06:22:25;15.13;;;10.80;;
6979;SDS011;3530;52.832;10.680;2023-04-29T06:25:10;13.02;;;10.65;;
6979;SDS011;3530;52.832;10.680;2023-04-29T06:27:56;12.50;;;10.35;;
6979;SDS011;3530;52.832;10.680;2023-04-29T06:30:42;13.55;;;9.70;;
6979;SDS011;3530;52.832;10.680;2023-04-29T06:33:27;11.13;;;8.57;;
6979;SDS011;3530;52.832;10.680;2023-04-29T06:36:14;15.85;;;11.95;;
6979;SDS011;3530;52.832;10.680;2023-04-29T06:39:00;12.98;;;10.23;;
6979;SDS011;3530;52.832;10.680;2023-04-29T06:41:46;16.70;;;10.55;;
6979;SDS011;3530;52.832;10.680;2023-04-29T06:44:32;13.48;;;9.80;;
6979;SDS011;3530;52.832;10.680;2023-04-29T06:47:17;17.23;;;12.38;;
6979;SDS011;3530;52.832;10.680;2023-04-29T06:50:04;13.80;;;10.43;;
6979;SDS011;3530;52.832;10.680;2023-04-29T06:52:50;14.93;;;11.70;;
6979;SDS011;3530;52.832;10.680;2023-04-29T06:55:36;18.13;;;11.38;;
6979;SDS011;3530;52.832;10.680;2023-04-29T06:58:21;21.38;;;12.15;;
6979;SDS011;3530;52.832;10.680;2023-04-29T07:01:07;15.65;;;11.00;;
6979;SDS011;3530;52.832;10.680;2023-04-29T07:03:53;11.63;;;9.02;;
6979;SDS011;3530;52.832;10.680;2023-04-29T07:06:39;15.82;;;11.82;;
6979;SDS011;3530;52.832;10.680;2023-04-29T07:09:25;12.75;;;10.00;;
6979;SDS011;3530;52.832;10.680;2023-04-29T07:12:11;12.85;;;10.68;;
6979;SDS011;3530;52.832;10.680;2023-04-29T07:14:57;15.98;;;11.88;;
6979;SDS011;3530;52.832;10.680;2023-04-29T07:17:44;13.57;;;10.63;;
6979;SDS011;3530;52.832;10.680;2023-04-29T07:20:29;12.50;;;11.20;;
6979;SDS011;3530;52.832;10.680;2023-04-29T07:23:15;13.55;;;10.68;;
6979;SDS011;3530;52.832;10.680;2023-04-29T07:29:00;14.30;;;10.90;;
6979;SDS011;3530;52.832;10.680;2023-04-29T07:31:45;13.13;;;9.05;;
6979;SDS011;3530;52.832;10.680;2023-04-29T07:34:31;12.00;;;8.88;;
6979;SDS011;3530;52.832;10.680;2023-04-29T07:37:17;17.60;;;11.23;;
6979;SDS011;3530;52.832;10.680;2023-04-29T07:40:03;13.10;;;10.90;;
6979;SDS011;3530;52.832;10.680;2023-04-29T07:42:49;13.38;;;10.63;;
6979;SDS011;3530;52.832;10.680;2023-04-29T07:45:34;12.27;;;8.60;;
6979;SDS011;3530;52.832;10.680;2023-04-29T07:48:20;13.20;;;8.63;;
6979;SDS011;3530;52.832;10.680;2023-04-29T07:51:11;12.20;;;10.25;;
6979;SDS011;3530;52.832;10.680;2023-04-29T07:53:57;12.15;;;8.82;;
6979;SDS011;3530;52.832;10.680;2023-04-29T07:56:43;12.27;;;9.65;;
6979;SDS011;3530;52.832;10.680;2023-04-29T07:59:29;10.23;;;8.10;;
6979;SDS011;3530;52.832;10.680;2023-04-29T08:02:15;8.52;;;7.68;;
6979;SDS011;3530;52.832;10.680;2023-04-29T08:05:01;8.98;;;8.02;;
6979;SDS011;3530;52.832;10.680;2023-04-29T08:07:47;9.93;;;7.63;;
6979;SDS011;3530;52.832;10.680;2023-04-29T08:10:36;8.68;;;7.30;;
6979;SDS011;3530;52.832;10.680;2023-04-29T08:13:25;10.65;;;8.57;;
6979;SDS011;3530;52.832;10.680;2023-04-29T08:16:10;9.57;;;7.93;;
6979;SDS011;3530;52.832;10.680;2023-04-29T08:18:57;9.63;;;7.70;;
6979;SDS011;3530;52.832;10.680;2023-04-29T08:21:43;11.75;;;8.30;;
6979;SDS011;3530;52.832;10.680;2023-04-29T08:24:28;9.40;;;7.38;;
6979;SDS011;3530;52.832;10.680;2023-04-29T08:27:14;8.98;;;7.93;;
6979;SDS011;3530;52.832;10.680;2023-04-29T08:30:00;9.20;;;6.63;;
6979;SDS011;3530;52.832;10.680;2023-04-29T08:32:46;9.68;;;8.60;;
6979;SDS011;3530;52.832;10.680;2023-04-29T08:35:31;11.77;;;8.10;;
6979;SDS011;3530;52.832;10.680;2023-04-29T08:38:17;9.55;;;7.97;;
6979;SDS011;3530;52.832;10.680;2023-04-29T08:41:03;9.18;;;8.23;;
6979;SDS011;3530;52.832;10.680;2023-04-29T08:43:48;9.73;;;7.35;;
6979;SDS011;3530;52.832;10.680;2023-04-29T08:46:34;9.50;;;7.55;;
6979;SDS011;3530;52.832;10.680;2023-04-29T08:49:20;9.25;;;7.72;;
6979;SDS011;3530;52.832;10.680;2023-04-29T08:52:06;8.20;;;7.20;;
6979;SDS011;3530;52.832;10.680;2023-04-29T08:54:51;8.95;;;7.38;;
6979;SDS011;3530;52.832;10.680;2023-04-29T08:57:37;6.80;;;5.97;;
6979;SDS011;3530;52.832;10.680;2023-04-29T09:00:24;12.52;;;8.35;;
6979;SDS011;3530;52.832;10.680;2023-04-29T09:03:11;9.30;;;8.07;;
6979;SDS011;3530;52.832;10.680;2023-04-29T09:06:01;7.70;;;6.95;;
6979;SDS011;3530;52.832;10.680;2023-04-29T09:08:47;7.38;;;6.63;;
6979;SDS011;3530;52.832;10.680;2023-04-29T09:11:33;8.30;;;6.97;;
6979;SDS011;3530;52.832;10.680;2023-04-29T09:14:20;7.68;;;6.35;;
6979;SDS011;3530;52.832;10.680;2023-04-29T09:17:07;6.22;;;5.70;;
6979;SDS011;3530;52.832;10.680;2023-04-29T09:19:52;12.20;;;7.85;;
6979;SDS011;3530;52.832;10.680;2023-04-29T09:22:47;8.18;;;6.47;;
6979;SDS011;3530;52.832;10.680;2023-04-29T09:25:34;12.32;;;8.52;;
6979;SDS011;3530;52.832;10.680;2023-04-29T09:28:20;4.97;;;4.47;;
6979;SDS011;3530;52.832;10.680;2023-04-29T09:31:07;8.18;;;6.03;;
6979;SDS011;3530;52.832;10.680;2023-04-29T09:33:53;8.30;;;6.65;;
6979;SDS011;3530;52.832;10.680;2023-04-29T09:36:47;7.45;;;6.60;;
6979;SDS011;3530;52.832;10.680;2023-04-29T09:39:37;8.32;;;6.90;;
6979;SDS011;3530;52.832;10.680;2023-04-29T09:42:23;6.82;;;6.13;;
6979;SDS011;3530;52.832;10.680;2023-04-29T09:45:09;7.50;;;6.20;;
6979;SDS011;3530;52.832;10.680;2023-04-29T09:48:02;8.73;;;6.47;;
6979;SDS011;3530;52.832;10.680;2023-04-29T09:50:59;7.75;;;6.22;;
6979;SDS011;3530;52.832;10.680;2023-04-29T09:53:48;10.02;;;6.28;;
6979;SDS011;3530;52.832;10.680;2023-04-29T09:56:47;6.88;;;5.78;;
6979;SDS011;3530;52.832;10.680;2023-04-29T09:59:34;8.68;;;6.38;;
6979;SDS011;3530;52.832;10.680;2023-04-29T10:02:22;7.57;;;6.60;;
6979;SDS011;3530;52.832;10.680;2023-04-29T10:05:09;5.05;;;4.60;;
6979;SDS011;3530;52.832;10.680;2023-04-29T10:07:56;13.05;;;9.52;;
6979;SDS011;3530;52.832;10.680;2023-04-29T10:10:43;19.27;;;13.93;;
6979;SDS011;3530;52.832;10.680;2023-04-29T10:13:30;11.40;;;8.70;;
6979;SDS011;3530;52.832;10.680;2023-04-29T10:16:26;8.10;;;5.60;;
6979;SDS011;3530;52.832;10.680;2023-04-29T10:19:23;10.25;;;6.70;;
6979;SDS011;3530;52.832;10.680;2023-04-29T10:22:15;7.90;;;6.05;;
6979;SDS011;3530;52.832;10.680;2023-04-29T10:25:05;7.55;;;6.32;;
6979;SDS011;3530;52.832;10.680;2023-04-29T10:27:52;7.85;;;5.72;;
6979;SDS011;3530;52.832;10.680;2023-04-29T10:30:40;9.77;;;6.50;;
6979;SDS011;3530;52.832;10.680;2023-04-29T10:33:28;10.27;;;6.75;;
6979;SDS011;3530;52.832;10.680;2023-04-29T10:36:15;7.90;;;5.85;;
6979;SDS011;3530;52.832;10.680;2023-04-29T10:39:02;5.35;;;4.82;;
6979;SDS011;3530;52.832;10.680;2023-04-29T10:41:50;7.93;;;6.00;;
6979;SDS011;3530;52.832;10.680;2023-04-29T10:45:08;6.47;;;5.50;;
6979;SDS011;3530;52.832;10.680;2023-04-29T10:53:59;6.25;;;4.25;;
6979;SDS011;3530;52.832;10.680;2023-04-29T10:56:54;7.55;;;5.50;;
6979;SDS011;3530;52.832;10.680;2023-04-29T11:02:25;8.05;;;5.53;;
6979;SDS011;3530;52.832;10.680;2023-04-29T11:05:11;5.28;;;4.40;;
6979;SDS011;3530;52.832;10.680;2023-04-29T11:08:09;6.95;;;4.97;;
6979;SDS011;3530;52.832;10.680;2023-04-29T11:11:00;8.98;;;6.32;;
6979;SDS011;3530;52.832;10.680;2023-04-29T11:13:46;8.20;;;7.25;;
6979;SDS011;3530;52.832;10.680;2023-04-29T11:16:32;6.53;;;5.70;;
6979;SDS011;3530;52.832;10.680;2023-04-29T11:19:22;6.05;;;4.75;;
6979;SDS011;3530;52.832;10.680;2023-04-29T11:24:59;8.02;;;6.50;;
6979;SDS011;3530;52.832;10.680;2023-04-29T11:27:46;10.60;;;5.50;;
6979;SDS011;3530;52.832;10.680;2023-04-29T11:30:33;6.50;;;5.07;;
6979;SDS011;3530;52.832;10.680;2023-04-29T11:33:20;4.32;;;3.85;;
6979;SDS011;3530;52.832;10.680;2023-04-29T11:36:05;4.47;;;4.07;;
6979;SDS011;3530;52.832;10.680;2023-04-29T11:38:52;5.05;;;4.35;;
6979;SDS011;3530;52.832;10.680;2023-04-29T11:41:37;8.35;;;5.60;;
6979;SDS011;3530;52.832;10.680;2023-04-29T11:44:23;5.63;;;4.38;;
6979;SDS011;3530;52.832;10.680;2023-04-29T11:47:09;7.30;;;5.15;;
6979;SDS011;3530;52.832;10.680;2023-04-29T11:50:05;7.13;;;5.68;;
6979;SDS011;3530;52.832;10.680;2023-04-29T11:52:52;7.25;;;4.80;;
6979;SDS011;3530;52.832;10.680;2023-04-29T11:55:40;6.60;;;5.47;;
6979;SDS011;3530;52.832;10.680;2023-04-29T11:58:27;7.05;;;5.03;;
6979;SDS011;3530;52.832;10.680;2023-04-29T12:01:13;7.30;;;5.97;;
6979;SDS011;3530;52.832;10.680;2023-04-29T12:03:58;6.95;;;5.85;;
6979;SDS011;3530;52.832;10.680;2023-04-29T12:06:45;5.20;;;4.80;;
6979;SDS011;3530;52.832;10.680;2023-04-29T12:09:40;6.05;;;5.47;;
6979;SDS011;3530;52.832;10.680;2023-04-29T12:12:26;5.72;;;4.03;;
6979;SDS011;3530;52.832;10.680;2023-04-29T12:15:13;8.02;;;5.03;;
6979;SDS011;3530;52.832;10.680;2023-04-29T12:17:59;6.72;;;2.65;;
6979;SDS011;3530;52.832;10.680;2023-04-29T12:20:45;8.02;;;4.38;;
6979;SDS011;3530;52.832;10.680;2023-04-29T12:23:32;6.40;;;4.10;;
6979;SDS011;3530;52.832;10.680;2023-04-29T12:26:20;7.95;;;4.30;;
6979;SDS011;3530;52.832;10.680;2023-04-29T12:29:05;4.28;;;3.53;;
6979;SDS011;3530;52.832;10.680;2023-04-29T12:31:54;3.35;;;2.83;;
6979;SDS011;3530;52.832;10.680;2023-04-29T12:34:40;4.47;;;3.47;;
6979;SDS011;3530;52.832;10.680;2023-04-29T12:37:26;4.43;;;3.35;;
6979;SDS011;3530;52.832;10.680;2023-04-29T12:40:12;5.10;;;4.00;;
6979;SDS011;3530;52.832;10.680;2023-04-29T12:43:06;6.70;;;4.32;;
6979;SDS011;3530;52.832;10.680;2023-04-29T12:45:53;4.97;;;4.47;;
6979;SDS011;3530;52.832;10.680;2023-04-29T12:48:45;4.75;;;4.30;;
6979;SDS011;3530;52.832;10.680;2023-04-29T12:51:31;7.07;;;4.18;;
6979;SDS011;3530;52.832;10.680;2023-04-29T12:54:18;4.85;;;4.40;;
6979;SDS011;3530;52.832;10.680;2023-04-29T12:57:04;7.47;;;5.70;;
6979;SDS011;3530;52.832;10.680;2023-04-29T12:59:50;4.10;;;3.45;;
6979;SDS011;3530;52.832;10.680;2023-04-29T13:02:35;6.15;;;4.53;;
6979;SDS011;3530;52.832;10.680;2023-04-29T13:05:21;4.50;;;3.90;;
6979;SDS011;3530;52.832;10.680;2023-04-29T13:08:07;5.40;;;4.90;;
6979;SDS011;3530;52.832;10.680;2023-04-29T13:10:53;7.50;;;6.75;;
6979;SDS011;3530;52.832;10.680;2023-04-29T13:13:38;3.22;;;2.97;;
6979;SDS011;3530;52.832;10.680;2023-04-29T13:16:24;3.67;;;3.38;;
6979;SDS011;3530;52.832;10.680;2023-04-29T13:19:10;6.18;;;3.97;;
6979;SDS011;3530;52.832;10.680;2023-04-29T13:21:56;7.88;;;6.25;;
6979;SDS011;3530;52.832;10.680;2023-04-29T13:24:41;3.95;;;3.53;;
6979;SDS011;3530;52.832;10.680;2023-04-29T13:27:27;4.93;;;4.15;;
6979;SDS011;3530;52.832;10.680;2023-04-29T13:30:13;4.90;;;3.78;;
6979;SDS011;3530;52.832;10.680;2023-04-29T13:32:59;4.55;;;3.65;;
6979;SDS011;3530;52.832;10.680;2023-04-29T13:35:45;6.18;;;4.15;;
6979;SDS011;3530;52.832;10.680;2023-04-29T13:38:32;2.90;;;2.67;;
6979;SDS011;3530;52.832;10.680;2023-04-29T13:41:18;3.90;;;3.42;;
6979;SDS011;3530;52.832;10.680;2023-04-29T13:44:03;4.90;;;3.45;;
6979;SDS011;3530;52.832;10.680;2023-04-29T13:46:49;5.13;;;3.58;;
6979;SDS011;3530;52.832;10.680;2023-04-29T13:49:36;2.95;;;2.75;;
6979;SDS011;3530;52.832;10.680;2023-04-29T13:52:25;3.50;;;3.20;;
6979;SDS011;3530;52.832;10.680;2023-04-29T13:55:10;4.03;;;3.10;;
6979;SDS011;3530;52.832;10.680;2023-04-29T13:57:56;2.67;;;2.53;;
6979;SDS011;3530;52.832;10.680;2023-04-29T14:00:42;3.15;;;2.85;;
6979;SDS011;3530;52.832;10.680;2023-04-29T14:03:28;2.67;;;2.47;;
6979;SDS011;3530;52.832;10.680;2023-04-29T14:06:14;5.55;;;3.45;;
6979;SDS011;3530;52.832;10.680;2023-04-29T14:09:00;6.05;;;3.17;;
6979;SDS011;3530;52.832;10.680;2023-04-29T14:11:46;4.03;;;3.70;;
6979;SDS011;3530;52.832;10.680;2023-04-29T14:14:32;3.28;;;3.00;;
6979;SDS011;3530;52.832;10.680;2023-04-29T14:17:18;3.42;;;2.55;;
6979;SDS011;3530;52.832;10.680;2023-04-29T14:20:04;2.83;;;2.58;;
6979;SDS011;3530;52.832;10.680;2023-04-29T14:22:50;3.45;;;3.15;;
6979;SDS011;3530;52.832;10.680;2023-04-29T14:25:36;3.50;;;3.20;;
6979;SDS011;3530;52.832;10.680;2023-04-29T14:28:22;5.82;;;3.20;;
6979;SDS011;3530;52.832;10.680;2023-04-29T14:31:07;3.10;;;2.80;;
6979;SDS011;3530;52.832;10.680;2023-04-29T14:33:53;3.10;;;2.80;;
6979;SDS011;3530;52.832;10.680;2023-04-29T14:36:39;6.40;;;3.60;;
6979;SDS011;3530;52.832;10.680;2023-04-29T14:39:25;4.82;;;3.70;;
6979;SDS011;3530;52.832;10.680;2023-04-29T14:42:11;5.38;;;3.15;;
6979;SDS011;3530;52.832;10.680;2023-04-29T14:44:57;3.17;;;2.95;;
6979;SDS011;3530;52.832;10.680;2023-04-29T14:47:43;2.97;;;2.85;;
6979;SDS011;3530;52.832;10.680;2023-04-29T14:50:29;4.53;;;3.20;;
6979;SDS011;3530;52.832;10.680;2023-04-29T14:53:14;4.05;;;3.75;;
6979;SDS011;3530;52.832;10.680;2023-04-29T14:56:00;4.03;;;3.60;;
6979;SDS011;3530;52.832;10.680;2023-04-29T14:58:46;4.05;;;3.70;;
6979;SDS011;3530;52.832;10.680;2023-04-29T15:01:31;3.42;;;3.13;;
6979;SDS011;3530;52.832;10.680;2023-04-29T15:04:18;4.53;;;3.72;;
6979;SDS011;3530;52.832;10.680;2023-04-29T15:07:04;3.60;;;3.13;;
6979;SDS011;3530;52.832;10.680;2023-04-29T15:09:50;3.55;;;3.25;;
6979;SDS011;3530;52.832;10.680;2023-04-29T15:12:35;3.20;;;3.00;;
6979;SDS011;3530;52.832;10.680;2023-04-29T15:15:21;3.58;;;3.28;;
6979;SDS011;3530;52.832;10.680;2023-04-29T15:18:07;3.80;;;3.42;;
6979;SDS011;3530;52.832;10.680;2023-04-29T15:20:53;3.85;;;3.47;;
6979;SDS011;3530;52.832;10.680;2023-04-29T15:23:38;3.25;;;2.95;;
6979;SDS011;3530;52.832;10.680;2023-04-29T15:26:25;4.00;;;3.10;;
6979;SDS011;3530;52.832;10.680;2023-04-29T15:29:11;3.70;;;2.33;;
6979;SDS011;3530;52.832;10.680;2023-04-29T15:31:56;2.70;;;2.50;;
6979;SDS011;3530;52.832;10.680;2023-04-29T15:34:42;2.75;;;2.55;;
6979;SDS011;3530;52.832;10.680;2023-04-29T15:37:28;4.03;;;3.70;;
6979;SDS011;3530;52.832;10.680;2023-04-29T15:40:14;3.28;;;2.97;;
6979;SDS011;3530;52.832;10.680;2023-04-29T15:43:01;2.70;;;2.40;;
6979;SDS011;3530;52.832;10.680;2023-04-29T15:45:47;2.50;;;2.33;;
6979;SDS011;3530;52.832;10.680;2023-04-29T15:48:32;2.67;;;2.55;;
6979;SDS011;3530;52.832;10.680;2023-04-29T15:51:18;3.95;;;3.17;;
6979;SDS011;3530;52.832;10.680;2023-04-29T15:54:04;4.38;;;2.35;;
6979;SDS011;3530;52.832;10.680;2023-04-29T15:56:51;2.88;;;2.25;;
6979;SDS011;3530;52.832;10.680;2023-04-29T15:59:37;2.67;;;2.47;;
6979;SDS011;3530;52.832;10.680;2023-04-29T16:02:23;2.15;;;2.05;;
6979;SDS011;3530;52.832;10.680;2023-04-29T16:05:08;1.90;;;1.80;;
6979;SDS011;3530;52.832;10.680;2023-04-29T16:07:54;3.15;;;2.00;;
6979;SDS011;3530;52.832;10.680;2023-04-29T16:10:40;1.80;;;1.70;;
6979;SDS011;3530;52.832;10.680;2023-04-29T16:13:25;1.88;;;1.77;;
6979;SDS011;3530;52.832;10.680;2023-04-29T16:16:11;1.80;;;1.80;;
6979;SDS011;3530;52.832;10.680;2023-04-29T16:18:57;2.30;;;1.85;;
6979;SDS011;3530;52.832;10.680;2023-04-29T16:21:42;3.08;;;1.75;;
6979;SDS011;3530;52.832;10.680;2023-04-29T16:24:31;2.60;;;1.83;;
6979;SDS011;3530;52.832;10.680;2023-04-29T16:27:16;2.85;;;1.63;;
6979;SDS011;3530;52.832;10.680;2023-04-29T16:30:03;1.90;;;1.80;;
6979;SDS011;3530;52.832;10.680;2023-04-29T16:32:49;1.58;;;1.48;;
6979;SDS011;3530;52.832;10.680;2023-04-29T16:35:36;2.03;;;1.58;;
6979;SDS011;3530;52.832;10.680;2023-04-29T16:38:22;1.67;;;1.58;;
6979;SDS011;3530;52.832;10.680;2023-04-29T16:41:07;1.20;;;1.20;;
6979;SDS011;3530;52.832;10.680;2023-04-29T16:43:53;1.92;;;1.80;;
6979;SDS011;3530;52.832;10.680;2023-04-29T16:46:39;1.15;;;1.15;;
6979;SDS011;3530;52.832;10.680;2023-04-29T16:49:24;1.55;;;1.50;;
6979;SDS011;3530;52.832;10.680;2023-04-29T16:52:13;2.10;;;1.98;;
6979;SDS011;3530;52.832;10.680;2023-04-29T16:54:59;3.13;;;2.35;;
6979;SDS011;3530;52.832;10.680;2023-04-29T16:57:45;1.75;;;1.60;;
6979;SDS011;3530;52.832;10.680;2023-04-29T17:00:31;2.55;;;2.28;;
6979;SDS011;3530;52.832;10.680;2023-04-29T17:03:17;3.63;;;1.90;;
6979;SDS011;3530;52.832;10.680;2023-04-29T17:06:02;1.77;;;1.77;;
6979;SDS011;3530;52.832;10.680;2023-04-29T17:08:49;2.53;;;2.20;;
6979;SDS011;3530;52.832;10.680;2023-04-29T17:11:36;2.75;;;1.73;;
6979;SDS011;3530;52.832;10.680;2023-04-29T17:14:21;3.03;;;1.70;;